Terminal Aerodrome Forecast
Issued by NWS

Home | Current Version | Previous Version | Text Only | Print | Product List | Glossary On
Versions: 1 2 3 4 5 6 7 8 9 10 11 12
000
FTUS45 KREV 262320
TAFMMH
TAF
KMMH 262320Z 2700/2724 26010KT P6SM VCSH SCT060 BKN080
     FM270200 29009KT P6SM SCT040 BKN120
     FM270600 VRB03KT P6SM SKC
     FM271700 12008KT P6SM FEW070
     FM272300 23010G18KT P6SM SCT070=

USA.gov is the U.S. government's official web portal to all federal, state and local government web resources and services.